• Join FlightAware (Why Join?)
  • Login
  • US Flag 
10:27AM EDT


 

Airport Tracker/Info


-or-


 

Live Flight TrackerFlight Track Log ✈ GPD20 ✈ 26-Aug-2013 ✈ KMVY - KTEB

Flight Track Log - Related Links

Times and Time Zones

All times are in EDT time to prevent confusion due to time zone crossing. See the GPD20 flight status page for this flight to view local times or setup timezone preferences in your user account.

Time Position Orientation Groundspeed Altitude Reporting Facility
EDT Latitude Longitude Course Direction KTS MPH feet Rate Location/Type
09:51AM 41.3711 -70.7747 298° West 102 117 3,800  Level Boston Center
09:52AM 41.3614 -70.8306 257° West 136 157 4,900 720 Climbing Boston Center
09:53AM 41.3578 -70.8692 263° West 118 136 5,600 660 Climbing Boston Center
09:54AM 41.5041 -70.9121 294° West  Level FlightAware Approximate
09:54AM 41.3500 -70.9136 257° West 113 130 6,300  Level Boston Center
09:55AM 41.5277 -70.9500 North  Level FlightAware Approximate
09:55AM 41.3444 -70.9553 260° West 126 145 6,600  Level Boston Center
09:56AM 41.5506 -70.9930 298° West  Level FlightAware Approximate
09:56AM 41.3408 -71.0106 265° West 141 162 6,600  Level Boston Center
09:57AM 41.3333 -71.0606 259° West 140 161 6,600 -60 Level Boston Center
09:58AM 41.3275 -71.1133 262° West 141 162 6,500 -60 Descending Boston Center
09:59AM 41.3219 -71.1658 262° West 144 166 6,500  Level Boston Center
10:00AM 41.3142 -71.2186 259° West 142 163 6,500  Level Boston Center
10:01AM 41.3044 -71.2658 255° West 142 163 6,500  Level Boston Center
10:02AM 41.2944 -71.3183 256° West 141 162 6,500  Level Boston Center
10:04AM 41.2767 -71.4236 257° West 144 166 6,500  Level Boston Center
10:05AM 41.2689 -71.4736 258° West 142 163 6,500  Level Boston Center
10:06AM 41.2631 -71.5261 262° West 143 165 6,500  Level Boston Center
10:07AM 41.2550 -71.5786 258° West 142 163 6,500  Level Boston Center
10:08AM 41.2472 -71.6311 259° West 148 170 6,500  Level Boston Center
10:09AM 41.2433 -71.6864 265° West 143 165 6,500  Level Boston Center
10:10AM 41.2353 -71.7389 258° West 139 160 6,500  Level Boston Center
10:11AM 41.2272 -71.7914 258° West 140 161 6,500  Level Boston Center
10:12AM 41.2192 -71.8442 259° West 142 163 6,500  Level Boston Center
10:13AM 41.2111 -71.8939 258° West 140 161 6,500  Level Boston Center
10:14AM 41.2031 -71.9464 258° West 141 162 6,500  Level Boston Center
10:15AM 41.1950 -72.0014 259° West 141 162 6,500  Level Boston Center
10:16AM 41.1869 -72.0511 258° West 139 160 6,500  Level Boston Center
10:18AM 41.1667 -72.1167 248° West 138 159 6,500 -120 Level New York TRACON
10:19AM 41.1667 -72.1833 270° West 151 174 6,200 -360 Descending New York TRACON
10:20AM 41.1667 -72.2333 270° West 151 174 5,800 -360 Descending New York TRACON
10:21AM 41.1500 -72.2833 246° West 152 175 5,500 -360 Descending New York TRACON
10:22AM 41.1500 -72.3500 270° West 153 176 5,100 -360 Descending New York TRACON
10:23AM 41.1333 -72.4000 246° West 152 175 4,800 -300 Descending New York TRACON
10:24AM 41.1333 -72.4667 270° West 151 174 4,500 -180 Descending New York TRACON
10:25AM 41.1167 -72.5167 246° West 144 166 4,500  Level New York TRACON
10:26AM 41.1167 -72.5667 270° West 144 166 4,500  Level New York TRACON
10:27AM 41.1000 -72.6167 246° West 142 163 4,500  Level New York TRACON
10:28AM 41.1000 -72.6667 270° West 147 169 4,500  Level New York TRACON
10:29AM 41.0833 -72.7167 246° West 142 163 4,500  Level New York TRACON
10:30AM 41.0833 -72.7667 270° West 144 166 4,500  Level New York TRACON
10:31AM 41.0667 -72.8167 246° West 144 166 4,500  Level New York TRACON
10:32AM 41.0667 -72.8833 270° West 143 165 4,500  Level New York TRACON
10:33AM 41.0500 -72.9167 236° Southwest 145 167 4,500  Level New York TRACON
10:34AM 41.0500 -72.9833 270° West 146 168 4,500  Level New York TRACON
10:35AM 41.0333 -73.0333 246° West 145 167 4,500 -60 Level New York TRACON
10:36AM 41.0333 -73.0833 270° West 147 169 4,400 -240 Descending New York TRACON
10:37AM 41.0167 -73.1333 246° West 151 174 4,100 -300 Descending New York TRACON
10:38AM 41.0167 -73.2000 270° West 150 173 3,800 -300 Descending New York TRACON
10:39AM 41.0000 -73.2500 246° West 152 175 3,600 -300 Descending New York TRACON
10:40AM 41.0000 -73.3000 270° West 149 171 3,300 -300 Descending New York TRACON
10:41AM 40.9833 -73.3500 246° West 146 168 3,000 -360 Descending New York TRACON
10:42AM 40.9833 -73.4000 270° West 147 169 2,600 -300 Descending New York TRACON
10:43AM 40.9667 -73.4500 246° West 145 167 2,500 -60 Descending New York TRACON
10:44AM 40.9667 -73.5000 270° West 144 166 2,500  Level New York TRACON
10:45AM 40.9667 -73.5500 270° West 144 166 2,500  Level New York TRACON
10:46AM 40.9667 -73.6167 270° West 146 168 2,500 -180 Level New York TRACON
10:47AM 40.9667 -73.6667 270° West 153 176 2,200 -420 Descending New York TRACON
10:48AM 40.9667 -73.7167 270° West 155 178 1,700 -480 Descending New York TRACON
10:49AM 40.9667 -73.7833 270° West 151 174 1,300 -240 Descending New York TRACON
10:50AM 40.9667 -73.8333 270° West 147 169 1,300  Level New York TRACON
10:51AM 40.9667 -73.8833 270° West 146 168 1,300  Level New York TRACON
10:52AM 40.9500 -73.9167 237° Southwest 146 168 1,300  Level New York TRACON
10:53AM 40.9167 -73.9667 229° Southwest 145 167 1,300 -60 Level New York TRACON
10:54AM 40.9000 -74.0000 237° Southwest 143 165 1,200 -360 Descending New York TRACON
10:55AM 40.8667 -74.0333 217° Southwest 126 145 600  Descending New York TRACON
10:57AM 40.8500 -74.0500 258° West  Level FlightAware Approximate
11:04AM 40.8501 -74.0608 258° West  Level Estimated
11:21AM 40.8667 -74.0000 49° Northeast 170 196 1,300  Level New York TRACON
11:22AM 40.9000 -73.9667 37° Northeast 173 199 1,300 240 Level New York TRACON
11:23AM 40.9333 -73.9333 37° Northeast 161 185 1,800 540 Climbing New York TRACON
11:24AM 40.9667 -73.8833 49° Northeast 161 185 2,400 540 Climbing New York TRACON
11:25AM 41.0000 -73.8333 49° Northeast 162 186 3,000 540 Climbing New York TRACON
11:26AM 41.0167 -73.8000 56° Northeast 160 184 3,500 300 Climbing New York TRACON
11:27AM 41.0500 -73.7500 49° Northeast 172 198 3,600  Climbing New York TRACON
11:28AM 41.0833 -73.7000 48° Northeast 208 239 3,600 -60 Level New York TRACON
11:29AM 41.1167 -73.6500 48° Northeast 175 201 3,500 -60 Descending New York TRACON
11:30AM 41.1500 -73.6000 48° Northeast 178 205 3,500  Level New York TRACON
11:31AM 41.1833 -73.5667 37° Northeast 177 204 3,500  Level New York TRACON
11:32AM 41.2333 -73.5000 45° Northeast 178 205 3,500  Level New York TRACON
11:33AM 41.2667 -73.4667 37° Northeast 178 205 3,500  Level New York TRACON
11:34AM 41.3000 -73.4167 48° Northeast 176 203 3,500  Level New York TRACON
11:35AM 41.3333 -73.3667 48° Northeast 182 209 3,500  Level New York TRACON
11:36AM 41.3500 -73.3167 66° East 178 205 3,500  Level New York TRACON